Time;durP1;ratioP1;P1;durP2;ratioP2;P2;SDS_P1;SDS_P2;PMS_P1;PMS_P2;Temp;Humidity;BMP_temperature;BMP_pressure;BME280_temperature;BME280_humidity;BME280_pressure;Samples;Min_cycle;Max_cycle;Signal;HPM_P1;HPM_P2
2021/10/01 00:01:54;;;;;;;3.78;2.30;;;8.20;99.90;;;;;;4992579;28;20056;-70
2021/10/01 00:04:22;;;;;;;5.88;2.50;;;8.20;99.90;;;;;;4990376;28;20137;-69
2021/10/01 00:06:49;;;;;;;5.13;2.55;;;8.20;99.90;;;;;;5001910;28;20061;-69
2021/10/01 00:09:16;;;;;;;8.32;2.63;;;8.20;99.90;;;;;;5000059;28;20037;-70
2021/10/01 00:11:49;;;;;;;6.53;2.47;;;8.20;99.90;;;;;;4983418;28;20074;-69
2021/10/01 00:14:16;;;;;;;10.75;2.95;;;8.20;99.90;;;;;;4984693;28;20321;-69
2021/10/01 00:16:43;;;;;;;7.72;2.83;;;8.20;99.90;;;;;;5000626;28;20146;-70
2021/10/01 00:19:09;;;;;;;5.10;2.72;;;8.20;99.90;;;;;;5001377;28;20502;-70
2021/10/01 00:21:36;;;;;;;4.07;2.72;;;8.20;99.90;;;;;;4986811;28;20642;-70
2021/10/01 00:24:07;;;;;;;11.25;2.25;;;8.10;99.90;;;;;;4995361;28;20042;-71
2021/10/01 00:26:39;;;;;;;7.00;2.80;;;8.20;99.90;;;;;;5001927;28;20053;-70
2021/10/01 00:29:07;;;;;;;5.65;2.33;;;8.20;99.90;;;;;;5000881;28;20359;-72
2021/10/01 00:31:34;;;;;;;3.85;2.70;;;8.20;99.90;;;;;;4980171;28;20038;-71
2021/10/01 00:34:01;;;;;;;7.03;2.78;;;8.20;99.90;;;;;;4982278;28;20049;-70
2021/10/01 00:36:29;;;;;;;5.88;2.50;;;8.30;99.90;;;;;;4997989;28;20046;-70
2021/10/01 00:38:59;;;;;;;4.72;2.85;;;8.30;99.90;;;;;;4987669;28;20050;-70
2021/10/01 00:41:27;;;;;;;2.72;2.53;;;8.30;99.90;;;;;;5000410;28;20045;-70
2021/10/01 00:43:54;;;;;;;6.90;2.95;;;8.40;99.90;;;;;;5000432;28;20077;-70
2021/10/01 00:46:22;;;;;;;6.53;2.53;;;8.40;99.90;;;;;;4983106;28;20049;-70
2021/10/01 00:48:49;;;;;;;11.07;2.50;;;8.40;99.90;;;;;;5000057;28;20137;-72
2021/10/01 00:51:17;;;;;;;5.97;2.45;;;8.40;99.90;;;;;;4972702;28;20050;-69
2021/10/01 00:53:45;;;;;;;6.97;3.10;;;8.30;99.90;;;;;;4964775;28;20050;-70
2021/10/01 00:56:12;;;;;;;4.45;2.65;;;8.30;99.90;;;;;;4991020;28;20069;-71
2021/10/01 00:58:39;;;;;;;4.82;2.45;;;8.30;99.90;;;;;;4998771;28;20137;-71
2021/10/01 01:03:59;;;;;;;6.60;2.72;;;8.30;99.90;;;;;;4989043;28;20050;-71
2021/10/01 01:06:34;;;;;;;8.32;3.00;;;8.30;99.90;;;;;;4998213;28;20239;-71
2021/10/01 01:09:39;;;;;;;4.97;2.50;;;8.30;99.90;;;;;;4982881;28;20073;-71
2021/10/01 01:12:08;;;;;;;5.25;2.53;;;8.20;99.90;;;;;;4999542;28;20140;-70
2021/10/01 01:15:06;;;;;;;5.72;2.35;;;8.20;99.90;;;;;;4984321;28;20517;-72
2021/10/01 01:17:43;;;;;;;6.38;2.50;;;8.20;99.90;;;;;;4987564;28;20053;-71
2021/10/01 01:20:21;;;;;;;7.28;2.47;;;8.20;99.90;;;;;;4966068;28;20085;-71
2021/10/01 01:22:54;;;;;;;6.15;2.88;;;8.20;99.90;;;;;;4998498;28;20048;-70
2021/10/01 01:26:15;;;;;;;11.63;3.03;;;8.30;99.90;;;;;;4983219;28;20050;-71
2021/10/01 01:28:49;;;;;;;3.25;2.70;;;8.30;99.90;;;;;;4904773;29;20056;-71
2021/10/01 01:31:40;;;;;;;7.35;2.63;;;8.30;99.90;;;;;;4980433;28;20060;-71
2021/10/01 01:34:09;;;;;;;7.75;3.28;;;8.30;99.90;;;;;;4997490;28;20081;-72
2021/10/01 01:36:36;;;;;;;2.67;2.10;;;8.30;99.90;;;;;;4985623;28;20049;-70
2021/10/01 01:39:06;;;;;;;5.85;2.50;;;8.30;99.90;;;;;;4983904;28;20522;-70
2021/10/01 01:41:34;;;;;;;8.93;2.80;;;8.30;99.90;;;;;;4981616;28;20052;-70
2021/10/01 01:44:01;;;;;;;4.88;2.83;;;8.40;99.90;;;;;;4983671;28;20054;-70
2021/10/01 01:46:29;;;;;;;5.10;3.00;;;8.40;99.90;;;;;;4981183;28;20046;-70
2021/10/01 01:49:08;;;;;;;6.78;3.22;;;8.40;99.90;;;;;;4983760;28;20045;-70
2021/10/01 01:51:36;;;;;;;6.45;2.97;;;8.40;99.90;;;;;;4999140;28;20489;-70
2021/10/01 01:54:04;;;;;;;9.07;2.50;;;8.40;99.90;;;;;;4970915;28;20042;-70
2021/10/01 01:56:31;;;;;;;7.88;3.72;;;8.40;99.90;;;;;;4977041;28;20129;-71
2021/10/01 01:59:01;;;;;;;8.38;2.53;;;8.40;99.90;;;;;;5003091;28;20484;-70
2021/10/01 02:01:36;;;;;;;7.05;2.90;;;8.40;99.90;;;;;;4982727;28;20117;-72
2021/10/01 02:04:14;;;;;;;6.95;2.75;;;8.40;99.90;;;;;;4968544;28;20093;-70
2021/10/01 02:06:44;;;;;;;4.50;2.20;;;8.30;99.90;;;;;;4990586;28;20096;-70
2021/10/01 02:09:12;;;;;;;5.70;2.85;;;8.30;99.90;;;;;;4986685;28;20045;-71
2021/10/01 02:11:44;;;;;;;5.07;2.83;;;8.30;99.90;;;;;;5002105;28;20490;-72
2021/10/01 02:14:17;;;;;;;5.07;4.03;;;8.30;99.90;;;;;;4988276;28;20450;-72
2021/10/01 02:16:45;;;;;;;6.80;3.08;;;8.40;99.90;;;;;;5001704;28;20136;-72
2021/10/01 02:19:14;;;;;;;9.60;3.08;;;8.40;99.90;;;;;;5004014;28;20073;-71
2021/10/01 02:21:42;;;;;;;5.60;3.28;;;8.40;99.90;;;;;;4992757;28;20185;-71
2021/10/01 02:24:09;;;;;;;4.82;2.75;;;8.30;99.90;;;;;;5014991;28;20156;-71
2021/10/01 02:26:40;;;;;;;12.00;2.70;;;8.30;99.90;;;;;;5000298;28;20133;-71
2021/10/01 02:29:15;;;;;;;7.10;2.60;;;8.30;99.90;;;;;;4987260;28;20045;-70
2021/10/01 02:32:09;;;;;;;7.72;3.30;;;8.30;99.90;;;;;;4978526;28;20050;-71
2021/10/01 02:34:43;;;;;;;8.80;3.25;;;8.30;99.90;;;;;;4980834;28;20112;-71
2021/10/01 02:37:14;;;;;;;7.15;3.10;;;8.30;99.90;;;;;;5005541;28;20045;-72
2021/10/01 02:39:45;;;;;;;6.32;2.90;;;8.30;99.90;;;;;;4984312;28;20189;-72
2021/10/01 02:42:15;;;;;;;5.60;2.67;;;8.30;99.90;;;;;;4981535;28;20046;-72
2021/10/01 02:44:45;;;;;;;7.57;2.88;;;8.30;99.90;;;;;;4966136;28;20051;-72
2021/10/01 02:47:13;;;;;;;7.13;3.00;;;8.30;99.90;;;;;;4981509;28;20054;-71
2021/10/01 02:49:41;;;;;;;4.53;2.83;;;8.30;99.90;;;;;;4987147;28;20045;-71
2021/10/01 02:52:20;;;;;;;4.45;2.72;;;8.30;99.90;;;;;;4992449;28;20056;-71
2021/10/01 02:55:01;;;;;;;8.73;3.40;;;8.30;99.90;;;;;;5001343;28;20054;-71
2021/10/01 02:57:53;;;;;;;10.65;2.72;;;8.30;99.90;;;;;;4986408;28;20133;-71
2021/10/01 03:00:20;;;;;;;7.45;2.40;;;8.30;99.90;;;;;;4958260;28;20125;-72
2021/10/01 03:02:51;;;;;;;7.32;2.50;;;8.30;99.90;;;;;;4994028;28;20080;-71
2021/10/01 03:05:20;;;;;;;7.72;3.05;;;8.30;99.90;;;;;;4982759;28;20115;-71
2021/10/01 03:07:48;;;;;;;5.50;2.92;;;8.30;99.90;;;;;;5000452;28;20049;-71
2021/10/01 03:10:16;;;;;;;8.57;3.13;;;8.30;99.90;;;;;;4998123;28;20144;-70
2021/10/01 03:12:45;;;;;;;5.65;2.85;;;8.30;99.90;;;;;;5000970;28;20128;-72
2021/10/01 03:15:13;;;;;;;4.30;2.60;;;8.30;99.90;;;;;;4984854;28;20513;-71
2021/10/01 03:17:45;;;;;;;7.03;3.17;;;8.30;99.90;;;;;;5015931;28;20481;-71
2021/10/01 03:20:14;;;;;;;4.13;2.63;;;8.30;99.90;;;;;;4997331;28;20514;-72
2021/10/01 03:22:42;;;;;;;6.53;2.67;;;8.30;99.90;;;;;;4981003;28;20066;-70
2021/10/01 03:25:12;;;;;;;4.70;2.97;;;8.20;99.90;;;;;;4981564;28;20096;-71
2021/10/01 03:27:39;;;;;;;4.20;2.63;;;8.20;99.90;;;;;;4981232;28;20058;-71
2021/10/01 03:30:08;;;;;;;5.78;2.83;;;8.20;99.90;;;;;;4993585;28;20434;-71
2021/10/01 03:32:36;;;;;;;11.18;3.33;;;8.20;99.90;;;;;;4985946;28;20438;-71
2021/10/01 03:35:08;;;;;;;10.10;3.50;;;8.20;99.90;;;;;;4981222;28;20085;-72
2021/10/01 03:37:35;;;;;;;6.18;3.33;;;8.20;99.90;;;;;;4989613;28;20061;-70
2021/10/01 03:40:08;;;;;;;4.00;2.78;;;8.20;99.90;;;;;;4984030;28;20354;-72
2021/10/01 03:42:36;;;;;;;6.68;3.42;;;8.20;99.90;;;;;;4999414;28;20054;-71
2021/10/01 03:45:05;;;;;;;3.25;2.85;;;8.20;99.90;;;;;;5000112;28;20200;-71
2021/10/01 03:47:32;;;;;;;9.93;2.88;;;8.20;99.90;;;;;;4999030;28;20046;-71
2021/10/01 03:49:59;;;;;;;6.63;3.22;;;8.20;99.90;;;;;;5000045;28;20514;-72
2021/10/01 03:52:26;;;;;;;6.45;2.90;;;8.10;99.90;;;;;;4996803;28;20418;-73
2021/10/01 03:54:53;;;;;;;8.68;2.70;;;8.20;99.90;;;;;;4975307;28;20046;-72
2021/10/01 03:57:21;;;;;;;4.40;2.65;;;8.20;99.90;;;;;;4974765;28;20050;-73
2021/10/01 03:59:49;;;;;;;4.43;2.95;;;8.10;99.90;;;;;;4983415;28;20062;-73
2021/10/01 04:02:16;;;;;;;9.63;3.78;;;8.20;99.90;;;;;;4991455;28;20583;-70
2021/10/01 04:04:43;;;;;;;7.72;3.70;;;8.10;99.90;;;;;;5008776;28;20046;-71
2021/10/01 04:07:10;;;;;;;4.45;3.13;;;8.20;99.90;;;;;;4989228;28;20511;-72
2021/10/01 04:09:37;;;;;;;5.88;2.95;;;8.20;99.90;;;;;;4977056;28;20560;-71
2021/10/01 04:12:08;;;;;;;8.55;3.30;;;8.10;99.90;;;;;;4982010;28;20140;-72
2021/10/01 04:14:35;;;;;;;5.18;3.35;;;8.10;99.90;;;;;;5000744;28;20103;-71
2021/10/01 04:17:03;;;;;;;8.70;3.03;;;8.10;99.90;;;;;;4982324;28;20201;-70
2021/10/01 04:19:30;;;;;;;4.45;3.13;;;8.10;99.90;;;;;;4983246;28;20045;-71
2021/10/01 04:22:04;;;;;;;7.68;3.28;;;8.10;99.90;;;;;;4996794;28;20379;-70
2021/10/01 04:24:42;;;;;;;8.10;3.78;;;8.10;99.90;;;;;;4968791;28;20130;-70
2021/10/01 04:27:10;;;;;;;17.90;3.25;;;8.10;99.90;;;;;;4983271;28;20137;-69
2021/10/01 04:29:37;;;;;;;8.10;2.97;;;8.10;99.90;;;;;;4983238;28;20054;-71
2021/10/01 04:32:06;;;;;;;8.32;2.88;;;8.10;99.90;;;;;;4988198;28;20050;-71
2021/10/01 04:34:39;;;;;;;6.45;3.13;;;8.10;99.90;;;;;;4979299;28;20485;-72
2021/10/01 04:37:06;;;;;;;8.85;2.97;;;8.10;99.90;;;;;;4985354;28;20076;-71
2021/10/01 04:39:33;;;;;;;6.43;2.65;;;8.10;99.90;;;;;;4963813;28;20034;-71
2021/10/01 04:41:59;;;;;;;7.97;2.83;;;8.10;99.90;;;;;;4972359;28;20045;-71
2021/10/01 04:44:26;;;;;;;8.70;3.10;;;8.10;99.90;;;;;;4983126;28;20485;-71
2021/10/01 04:46:53;;;;;;;5.18;2.90;;;8.00;99.90;;;;;;4981233;28;20042;-70
2021/10/01 04:49:20;;;;;;;8.05;2.85;;;8.00;99.90;;;;;;4983219;28;20107;-72
2021/10/01 04:51:47;;;;;;;3.53;2.47;;;8.00;99.90;;;;;;5002343;28;20046;-72
2021/10/01 04:54:14;;;;;;;7.95;3.42;;;8.00;99.90;;;;;;4999725;28;20133;-72
2021/10/01 04:56:41;;;;;;;7.53;2.70;;;8.00;99.90;;;;;;4990613;28;20046;-71
2021/10/01 04:59:08;;;;;;;5.25;2.65;;;8.00;99.90;;;;;;5015402;28;20410;-71
2021/10/01 05:01:58;;;;;;;7.28;2.83;;;7.90;99.90;;;;;;4991529;28;20184;-71
2021/10/01 05:04:55;;;;;;;6.55;2.80;;;7.90;99.90;;;;;;4973536;28;20045;-70
2021/10/01 05:07:51;;;;;;;5.68;2.45;;;8.00;99.90;;;;;;4981868;28;20049;-71
2021/10/01 05:10:50;;;;;;;11.65;4.30;;;7.90;99.90;;;;;;4952251;28;20038;-71
2021/10/01 05:13:52;;;;;;;5.63;2.50;;;7.90;99.90;;;;;;4964098;28;20553;-72
2021/10/01 05:16:37;;;;;;;7.65;3.40;;;7.90;99.90;;;;;;4993274;28;20421;-71
2021/10/01 05:19:24;;;;;;;4.47;2.78;;;7.90;99.90;;;;;;4943153;28;20138;-71
2021/10/01 05:22:12;;;;;;;7.82;3.05;;;7.90;99.90;;;;;;4977410;28;20534;-71
2021/10/01 05:24:39;;;;;;;8.15;3.55;;;7.90;99.90;;;;;;4965656;28;20056;-72
2021/10/01 05:27:06;;;;;;;8.15;3.40;;;7.80;99.90;;;;;;4981262;28;20065;-71
2021/10/01 05:29:32;;;;;;;8.63;3.00;;;7.90;99.90;;;;;;4981361;28;20050;-70
2021/10/01 05:31:59;;;;;;;10.13;3.00;;;7.90;99.90;;;;;;4982260;28;20057;-72
2021/10/01 05:34:27;;;;;;;6.35;3.20;;;7.90;99.90;;;;;;4984637;28;20042;-71
2021/10/01 05:36:55;;;;;;;6.10;3.53;;;7.90;99.90;;;;;;4997723;28;20054;-72
2021/10/01 05:39:22;;;;;;;4.90;3.88;;;7.90;99.90;;;;;;4988016;28;20056;-70
2021/10/01 05:41:49;;;;;;;5.65;3.33;;;8.00;99.90;;;;;;4978349;28;20315;-72
2021/10/01 05:44:16;;;;;;;4.57;3.00;;;8.00;99.90;;;;;;4974714;28;20077;-71
2021/10/01 05:46:45;;;;;;;6.47;3.20;;;8.00;99.90;;;;;;4998131;28;20474;-71
2021/10/01 05:49:42;;;;;;;3.97;3.08;;;8.00;99.90;;;;;;5012642;28;20505;-70
2021/10/01 05:55:20;;;;;;;6.05;3.28;;;8.10;99.90;;;;;;4995047;28;20073;-72
2021/10/01 05:58:06;;;;;;;9.00;3.33;;;8.20;99.90;;;;;;4989293;28;20053;-71
2021/10/01 06:00:42;;;;;;;3.13;2.83;;;8.20;99.90;;;;;;4997565;28;20042;-72
2021/10/01 06:03:09;;;;;;;4.25;2.97;;;8.30;99.90;;;;;;4975441;28;20043;-70
2021/10/01 06:05:36;;;;;;;6.35;3.08;;;8.40;99.90;;;;;;4961745;28;20038;-70
2021/10/01 06:08:03;;;;;;;6.07;3.78;;;8.40;99.90;;;;;;4978792;28;20050;-72
2021/10/01 06:10:30;;;;;;;3.38;3.17;;;8.40;99.90;;;;;;4976417;28;20411;-72
2021/10/01 06:12:57;;;;;;;3.40;3.10;;;8.50;99.90;;;;;;4963472;28;20047;-70
2021/10/01 06:15:24;;;;;;;6.38;3.38;;;8.50;99.90;;;;;;4963858;28;20682;-71
2021/10/01 06:17:51;;;;;;;3.95;3.42;;;8.60;99.90;;;;;;4986606;28;20045;-72
2021/10/01 06:20:17;;;;;;;4.15;3.38;;;8.60;99.90;;;;;;4996062;28;20495;-71
2021/10/01 06:22:44;;;;;;;7.85;3.88;;;8.70;99.90;;;;;;4981171;28;20038;-72
2021/10/01 06:25:11;;;;;;;7.57;4.00;;;8.70;99.90;;;;;;4981409;28;20038;-73
2021/10/01 06:27:39;;;;;;;7.72;3.25;;;8.80;99.90;;;;;;4967914;28;20044;-70
2021/10/01 06:30:08;;;;;;;6.20;3.70;;;8.80;99.90;;;;;;5000804;28;20119;-70
2021/10/01 06:32:39;;;;;;;4.65;3.25;;;8.80;99.90;;;;;;4984522;28;20058;-69
2021/10/01 06:35:07;;;;;;;5.00;3.47;;;8.90;99.90;;;;;;4980546;28;20058;-70
2021/10/01 06:37:35;;;;;;;8.50;4.18;;;9.00;99.90;;;;;;4948409;28;20051;-71
2021/10/01 06:40:03;;;;;;;5.20;3.50;;;9.00;99.90;;;;;;5000406;28;20065;-71
2021/10/01 06:42:31;;;;;;;5.88;3.95;;;9.10;99.90;;;;;;5003374;28;20046;-71
2021/10/01 06:45:20;;;;;;;5.85;4.10;;;9.20;99.90;;;;;;4993416;28;20064;-69
2021/10/01 06:48:06;;;;;;;5.55;4.13;;;9.20;99.90;;;;;;4985389;28;20068;-71
2021/10/01 08:19:04;;;;;;;;;;;11.90;99.90;;;;;;5003147;28;20065;-68
2021/10/01 08:21:31;;;;;;;8.82;8.13;;;12.10;99.90;;;;;;4990153;28;19922;-70
2021/10/01 08:24:13;;;;;;;9.60;9.02;;;12.60;99.90;;;;;;4984368;28;20410;-71
2021/10/01 08:26:41;;;;;;;11.10;10.40;;;12.80;99.90;;;;;;4980672;28;20355;-70
2021/10/01 08:29:08;;;;;;;12.27;10.90;;;13.00;99.90;;;;;;4982859;28;20057;-70
2021/10/01 08:31:35;;;;;;;11.48;10.40;;;13.30;99.90;;;;;;4983470;28;20069;-69
2021/10/01 08:34:02;;;;;;;10.85;9.85;;;13.40;99.90;;;;;;4985215;28;20289;-70
2021/10/01 08:36:29;;;;;;;9.73;8.82;;;13.50;99.90;;;;;;4998676;28;20049;-70
2021/10/01 08:39:06;;;;;;;11.15;10.38;;;13.70;99.90;;;;;;4975955;28;20142;-70
2021/10/01 08:41:33;;;;;;;11.35;10.57;;;14.00;99.90;;;;;;4979671;28;20042;-69
2021/10/01 08:44:00;;;;;;;11.98;11.05;;;14.30;99.90;;;;;;5000156;28;20473;-68
2021/10/01 08:46:29;;;;;;;12.00;11.13;;;14.40;99.90;;;;;;4999565;28;20442;-70
2021/10/01 08:49:01;;;;;;;11.30;10.60;;;14.30;99.90;;;;;;4982469;28;20061;-70
2021/10/01 08:51:28;;;;;;;11.48;10.75;;;14.40;99.90;;;;;;4999262;28;20081;-70
2021/10/01 08:53:56;;;;;;;12.18;11.15;;;14.60;99.90;;;;;;4999835;28;20115;-70
2021/10/01 08:56:24;;;;;;;11.40;10.60;;;14.70;99.90;;;;;;5001153;28;20053;-69
2021/10/01 08:58:52;;;;;;;11.63;10.77;;;14.70;99.90;;;;;;4984150;28;20506;-67
2021/10/01 09:01:19;;;;;;;12.90;11.98;;;14.70;99.90;;;;;;5000270;28;20050;-69
2021/10/01 09:03:47;;;;;;;12.70;11.90;;;14.60;99.90;;;;;;4998866;28;20053;-70
2021/10/01 09:06:15;;;;;;;12.55;11.85;;;14.60;99.90;;;;;;4983064;28;20124;-68
2021/10/01 09:08:56;;;;;;;12.45;11.52;;;14.70;99.90;;;;;;4993791;28;20487;-69
2021/10/01 09:11:35;;;;;;;11.63;10.88;;;14.90;99.90;;;;;;4986934;28;20481;-68
2021/10/01 09:14:10;;;;;;;11.55;10.95;;;14.80;99.90;;;;;;5000302;28;20459;-69
2021/10/01 09:16:39;;;;;;;12.48;11.50;;;15.00;99.90;;;;;;5000044;28;20323;-70
2021/10/01 09:19:07;;;;;;;12.93;12.18;;;14.90;99.90;;;;;;4999769;28;20132;-69
2021/10/01 09:21:49;;;;;;;13.82;12.98;;;15.00;99.90;;;;;;4984459;28;20162;-69
2021/10/01 09:24:23;;;;;;;13.43;12.63;;;15.10;99.90;;;;;;4990597;28;20112;-70
2021/10/01 09:26:52;;;;;;;13.70;12.80;;;14.90;99.90;;;;;;5000394;28;20096;-71
2021/10/01 09:29:32;;;;;;;13.07;12.32;;;14.80;99.90;;;;;;5002095;28;20061;-71
2021/10/01 09:32:01;;;;;;;13.13;12.10;;;14.90;99.90;;;;;;4997352;28;20984;-71
2021/10/01 09:34:33;;;;;;;13.05;12.25;;;15.10;99.90;;;;;;4982096;28;20053;-70
2021/10/01 09:37:10;;;;;;;13.18;12.02;;;15.10;99.90;;;;;;4998605;28;20054;-70
2021/10/01 09:39:50;;;;;;;13.13;12.27;;;15.10;99.90;;;;;;4988886;28;20120;-70
2021/10/01 09:42:21;;;;;;;13.80;12.90;;;15.50;99.90;;;;;;4977144;28;20050;-69
2021/10/01 09:45:03;;;;;;;13.45;12.73;;;15.80;99.90;;;;;;4969579;28;20062;-69
2021/10/01 09:47:48;;;;;;;14.07;13.18;;;15.60;99.90;;;;;;4975784;28;20077;-70
2021/10/01 09:50:21;;;;;;;13.40;12.60;;;15.50;99.90;;;;;;4996511;28;20058;-71
2021/10/01 09:52:50;;;;;;;14.13;13.00;;;15.60;99.90;;;;;;4976792;28;20480;-70
2021/10/01 09:55:29;;;;;;;13.95;12.68;;;15.60;99.90;;;;;;4965994;28;20412;-69
2021/10/01 09:58:11;;;;;;;13.43;12.52;;;15.50;99.90;;;;;;4963894;28;20474;-69
2021/10/01 10:00:46;;;;;;;13.18;12.32;;;15.50;99.90;;;;;;4979526;28;20747;-72
2021/10/01 10:03:13;;;;;;;13.52;12.73;;;15.60;99.90;;;;;;4961194;28;20058;-70
2021/10/01 10:06:03;;;;;;;13.75;12.80;;;15.50;99.90;;;;;;4989932;28;20454;-71
2021/10/01 10:08:33;;;;;;;14.07;13.32;;;15.60;99.90;;;;;;4989465;28;20097;-70
2021/10/01 10:11:02;;;;;;;14.60;13.35;;;15.90;99.90;;;;;;4978566;28;20145;-71
2021/10/01 10:13:48;;;;;;;13.25;12.55;;;16.00;99.90;;;;;;4980698;28;20078;-72
2021/10/01 10:16:21;;;;;;;13.60;12.63;;;16.00;99.90;;;;;;4993986;28;20095;-71
2021/10/01 10:18:55;;;;;;;13.75;12.50;;;16.00;99.90;;;;;;5003359;28;20306;-70
2021/10/01 10:21:23;;;;;;;12.93;12.23;;;15.90;99.90;;;;;;4985496;28;20926;-70
2021/10/01 10:23:51;;;;;;;13.00;12.20;;;16.00;99.90;;;;;;5004160;28;20328;-71
2021/10/01 10:26:18;;;;;;;13.30;12.50;;;16.00;99.90;;;;;;4985249;28;20345;-72
2021/10/01 10:28:46;;;;;;;14.05;12.85;;;16.10;99.90;;;;;;5003405;28;20061;-72
2021/10/01 10:31:17;;;;;;;12.85;12.05;;;16.00;99.90;;;;;;4986073;28;20053;-72
2021/10/01 10:33:50;;;;;;;12.05;11.35;;;16.00;99.90;;;;;;4987373;28;20414;-73
2021/10/01 10:36:31;;;;;;;12.25;11.40;;;16.10;99.90;;;;;;5001555;28;20490;-70
2021/10/01 10:39:11;;;;;;;12.15;11.30;;;16.30;99.90;;;;;;4994956;28;20081;-73
2021/10/01 10:41:39;;;;;;;12.13;11.45;;;16.50;99.90;;;;;;5002150;28;20042;-71
2021/10/01 10:44:11;;;;;;;12.77;11.82;;;16.60;99.90;;;;;;5003667;28;20418;-71
2021/10/01 10:46:38;;;;;;;13.35;12.38;;;16.60;99.90;;;;;;5002723;28;20483;-73
2021/10/01 10:49:17;;;;;;;12.35;11.68;;;16.60;99.90;;;;;;5001176;28;20060;-71
2021/10/01 10:52:04;;;;;;;12.02;11.30;;;16.80;99.90;;;;;;4992953;28;20500;-70
2021/10/01 10:54:43;;;;;;;12.05;11.40;;;16.90;99.90;;;;;;5001645;28;20057;-72
2021/10/01 10:57:16;;;;;;;11.75;11.10;;;16.90;99.90;;;;;;5000764;28;20060;-70
2021/10/01 10:59:47;;;;;;;12.00;11.13;;;16.80;99.90;;;;;;5002422;28;20678;-68
2021/10/01 11:02:33;;;;;;;12.80;12.10;;;17.00;99.90;;;;;;5000717;28;20105;-70
2021/10/01 11:05:26;;;;;;;14.00;13.20;;;17.30;99.90;;;;;;4992644;28;20085;-70
2021/10/01 11:07:58;;;;;;;12.60;11.85;;;17.60;99.90;;;;;;4991655;28;20066;-71
2021/10/01 11:10:41;;;;;;;14.48;13.48;;;17.50;99.90;;;;;;4987541;28;20053;-68
2021/10/01 11:13:27;;;;;;;13.98;13.18;;;17.50;99.90;;;;;;4984063;28;20466;-66
2021/10/01 11:16:09;;;;;;;14.60;13.50;;;17.20;99.90;;;;;;4982298;28;20264;-69
2021/10/01 11:18:44;;;;;;;13.65;12.82;;;17.20;99.90;;;;;;4984466;28;20069;-70
2021/10/01 11:21:32;;;;;;;12.55;11.95;;;17.30;99.90;;;;;;5000849;28;20077;-70
2021/10/01 11:24:07;;;;;;;13.65;12.80;;;17.50;99.90;;;;;;5001662;28;20060;-70
2021/10/01 11:26:45;;;;;;;12.75;11.95;;;17.50;99.90;;;;;;4983953;28;20332;-71
2021/10/01 11:29:18;;;;;;;;;;;17.70;99.90;;;;;;5001828;28;20121;-69
2021/10/01 11:31:45;;;;;;;12.48;11.63;;;17.70;99.90;;;;;;5001074;28;19999;-69
2021/10/01 11:34:12;;;;;;;12.10;11.60;;;17.70;99.90;;;;;;4996571;28;20042;-70
2021/10/01 11:36:39;;;;;;;12.30;11.35;;;17.80;99.90;;;;;;4999854;28;20387;-71
2021/10/01 11:39:16;;;;;;;12.20;11.38;;;18.00;99.90;;;;;;4993080;28;20609;-71
2021/10/01 11:41:48;;;;;;;12.15;11.35;;;17.90;99.90;;;;;;4983725;28;20045;-68
2021/10/01 11:44:16;;;;;;;11.43;10.93;;;17.80;99.90;;;;;;4984148;28;20136;-69
2021/10/01 11:46:45;;;;;;;12.48;11.57;;;17.70;99.90;;;;;;5000151;28;20248;-70
2021/10/01 11:49:21;;;;;;;11.30;10.80;;;17.70;99.90;;;;;;5001055;28;20050;-70
2021/10/01 11:52:01;;;;;;;11.63;10.82;;;17.60;99.90;;;;;;4995223;28;20508;-71
2021/10/01 11:54:29;;;;;;;13.00;12.20;;;17.60;99.90;;;;;;5001016;28;20056;-69
2021/10/01 11:56:58;;;;;;;12.27;11.57;;;17.60;99.90;;;;;;4980803;28;20064;-71
2021/10/01 11:59:51;;;;;;;12.52;11.65;;;17.80;99.90;;;;;;4998592;28;20053;-69
2021/10/01 12:02:42;;;;;;;13.20;12.50;;;18.00;99.90;;;;;;4994919;28;20049;-70
2021/10/01 12:05:30;;;;;;;12.60;11.63;;;18.20;99.90;;;;;;5020914;28;20116;-72
2021/10/01 12:08:06;;;;;;;12.38;11.65;;;18.50;99.90;;;;;;5018220;28;20053;-70
2021/10/01 12:10:46;;;;;;;12.40;11.77;;;18.50;99.90;;;;;;4993727;28;20529;-73
2021/10/01 12:13:30;;;;;;;13.00;12.30;;;18.20;99.90;;;;;;4969994;28;20531;-71
2021/10/01 12:16:04;;;;;;;13.68;12.70;;;18.30;99.90;;;;;;4983076;28;20045;-70
2021/10/01 12:18:57;;;;;;;14.07;13.38;;;18.40;99.90;;;;;;4997948;28;20139;-72
2021/10/01 12:21:31;;;;;;;14.20;13.30;;;18.10;99.90;;;;;;4993748;28;20062;-71
2021/10/01 12:24:04;;;;;;;13.38;12.77;;;17.70;99.90;;;;;;4989155;28;20410;-70
2021/10/01 12:26:39;;;;;;;13.10;12.40;;;17.60;99.90;;;;;;5000252;28;20087;-70
2021/10/01 12:29:11;;;;;;;13.02;12.05;;;17.70;99.90;;;;;;4999773;28;20336;-71
2021/10/01 12:31:49;;;;;;;12.98;11.95;;;17.70;99.90;;;;;;4981977;28;20521;-70
2021/10/01 12:34:18;;;;;;;13.48;12.65;;;17.70;99.90;;;;;;4991451;28;20062;-70
2021/10/01 12:36:47;;;;;;;13.43;12.73;;;17.90;99.90;;;;;;5001049;28;20205;-69
2021/10/01 12:39:15;;;;;;;13.15;12.27;;;18.00;99.90;;;;;;4973393;28;20214;-72
2021/10/01 12:41:43;;;;;;;13.70;12.65;;;18.00;99.90;;;;;;4957929;28;20050;-71
2021/10/01 12:44:14;;;;;;;14.20;13.43;;;18.00;99.90;;;;;;4938224;28;20444;-71
2021/10/01 12:46:47;;;;;;;13.88;13.15;;;18.00;99.90;;;;;;4975642;28;20085;-69
2021/10/01 12:49:22;;;;;;;13.23;12.63;;;18.10;99.90;;;;;;4955890;28;20068;-72
2021/10/01 12:52:10;;;;;;;12.63;12.02;;;18.20;99.90;;;;;;4961008;28;20050;-70
2021/10/01 12:54:40;;;;;;;12.60;11.95;;;18.30;99.90;;;;;;4980850;28;20422;-72
2021/10/01 12:57:15;;;;;;;13.27;12.43;;;18.20;99.90;;;;;;4976926;28;20050;-72
2021/10/01 12:59:46;;;;;;;13.00;12.40;;;18.30;99.90;;;;;;4981939;28;20081;-71
2021/10/01 13:02:23;;;;;;;13.32;12.52;;;18.20;99.90;;;;;;4992462;28;20156;-72
2021/10/01 13:04:56;;;;;;;13.77;12.98;;;18.20;99.90;;;;;;4980327;28;20363;-71
2021/10/01 13:07:44;;;;;;;13.52;12.73;;;18.10;99.90;;;;;;4978893;28;20053;-68
2021/10/01 13:10:28;;;;;;;13.38;12.43;;;18.10;99.90;;;;;;4983163;28;20045;-71
2021/10/01 13:12:59;;;;;;;12.10;11.23;;;17.90;99.90;;;;;;4973636;28;20054;-72
2021/10/01 13:15:50;;;;;;;12.57;11.85;;;17.90;99.90;;;;;;4999182;28;20041;-71
2021/10/01 13:18:22;;;;;;;12.30;11.60;;;18.00;99.90;;;;;;5015586;28;20045;-70
2021/10/01 13:20:53;;;;;;;12.48;11.73;;;17.90;99.90;;;;;;5001337;28;20400;-71
2021/10/01 13:23:45;;;;;;;12.10;11.60;;;18.00;99.90;;;;;;4988529;28;20104;-72
2021/10/01 13:26:17;;;;;;;12.88;12.00;;;18.00;99.90;;;;;;4977313;28;20064;-68
2021/10/01 13:29:03;;;;;;;12.88;12.05;;;17.90;99.90;;;;;;4968407;28;20674;-70
2021/10/01 13:31:42;;;;;;;12.75;12.15;;;18.00;99.90;;;;;;4994742;28;20044;-72
2021/10/01 13:34:11;;;;;;;12.38;11.88;;;17.90;99.90;;;;;;4975967;28;20073;-71
2021/10/01 13:36:39;;;;;;;12.88;12.13;;;17.90;99.90;;;;;;4984202;28;20077;-68
2021/10/01 13:39:08;;;;;;;12.60;12.10;;;18.00;99.90;;;;;;4987236;28;20061;-72
2021/10/01 13:41:35;;;;;;;12.68;11.98;;;18.00;99.90;;;;;;4959940;28;20129;-70
2021/10/01 13:44:02;;;;;;;12.27;11.77;;;17.90;99.90;;;;;;4991312;28;20046;-70
2021/10/01 13:46:29;;;;;;;12.20;11.68;;;17.80;99.90;;;;;;4959993;28;20044;-70
2021/10/01 13:48:56;;;;;;;13.13;12.32;;;17.80;99.90;;;;;;4995170;28;20062;-71
2021/10/01 13:51:23;;;;;;;12.50;12.00;;;17.90;99.90;;;;;;4982659;28;20418;-69
2021/10/01 13:53:51;;;;;;;12.95;12.15;;;17.90;99.90;;;;;;4990085;28;20057;-71
2021/10/01 13:56:18;;;;;;;13.02;12.43;;;17.90;99.90;;;;;;4996111;28;20054;-71
2021/10/01 13:58:45;;;;;;;12.88;12.05;;;17.90;99.90;;;;;;4997534;28;20046;-70
2021/10/01 14:01:14;;;;;;;12.93;12.32;;;18.00;99.90;;;;;;4995118;28;20042;-70
2021/10/01 14:03:41;;;;;;;13.40;12.60;;;18.00;99.90;;;;;;4988646;28;20415;-70
2021/10/01 14:06:08;;;;;;;12.50;11.85;;;18.10;99.90;;;;;;4960288;28;20054;-71
2021/10/01 14:08:35;;;;;;;11.77;11.27;;;18.30;99.90;;;;;;4960536;28;20575;-72
2021/10/01 14:11:21;;;;;;;11.85;11.35;;;18.20;99.90;;;;;;4968388;28;20054;-73
2021/10/01 14:13:48;;;;;;;13.20;12.60;;;17.90;99.90;;;;;;4995388;28;20046;-71
2021/10/01 14:16:15;;;;;;;13.02;12.40;;;17.90;99.90;;;;;;4995118;28;20061;-69
2021/10/01 14:18:42;;;;;;;12.90;12.23;;;17.80;99.90;;;;;;4964267;28;20501;-70
2021/10/01 14:21:10;;;;;;;11.82;11.20;;;17.70;99.90;;;;;;4986837;28;20069;-72
2021/10/01 14:23:40;;;;;;;13.20;12.23;;;17.50;99.90;;;;;;4976898;28;20485;-69
2021/10/01 14:26:07;;;;;;;11.82;11.32;;;17.50;99.90;;;;;;4994340;28;20173;-72
2021/10/01 14:28:34;;;;;;;12.68;11.95;;;17.50;99.90;;;;;;4995433;28;20471;-70
2021/10/01 14:31:01;;;;;;;12.48;11.88;;;17.40;99.90;;;;;;4996120;28;20058;-70
2021/10/01 14:33:28;;;;;;;12.60;11.88;;;17.30;99.90;;;;;;4979737;28;20046;-70
2021/10/01 14:35:56;;;;;;;12.50;11.90;;;17.20;99.90;;;;;;4995426;28;20058;-71
2021/10/01 14:38:24;;;;;;;12.60;12.00;;;17.20;99.90;;;;;;4980426;28;20120;-71
2021/10/01 14:40:53;;;;;;;12.93;12.32;;;17.30;99.90;;;;;;4984643;28;20108;-71
2021/10/01 14:43:31;;;;;;;13.07;12.43;;;17.30;99.90;;;;;;4976952;28;20088;-71
2021/10/01 14:45:59;;;;;;;13.25;12.65;;;17.20;99.90;;;;;;4992365;28;20117;-71